KMSV/MSV METAR and TAF weather

Enter ICAO airport designator
Station Type Date Time Source
KMSV METAR 2022/01/29 10:18 UTC NOAA

KMSV 291018Z AUTO 32008KT 2SM -SN BR OVC024 M09/M11 A2980 RMK AO2 P0001 FZRANO


Station Type Date Time Source
KMSV Decoded METAR 2022/01/29 10:18 UTC NOAA

Monticello, Sullivan County International Airport, NY, United States (KMSV) 41-42N 074-48W
Jan 29, 2022 - 05:18 AM EST / 2022.01.29 1018 UTC
Wind: from the NW (320 degrees) at 9 MPH (8 KT):0
Visibility: 2 mile(s):0
Sky conditions: overcast
Weather: light snow; mist
Precipitation last hour: 0.01 inches
Temperature: 15 F (-9 C)
Windchill: 3 F (-16 C):1
Dew Point: 12 F (-11 C)
Relative Humidity: 85%
Pressure (altimeter): 29.8 in. Hg (1009 hPa)
ob: KMSV 291018Z AUTO 32008KT 2SM -SN BR OVC024 M09/M11 A2980 RMK AO2 P0001 FZRANO
cycle: 10

Station Type Date Time Source
KMSV TAF UTC NOAA

Error!

Example: see airport list